createdAt,value
2019-05-12T00:02:12.858Z,44.80
2019-05-12T00:07:18.507Z,44.90
2019-05-12T00:12:24.534Z,45.10
2019-05-12T00:17:30.217Z,44.90
2019-05-12T00:22:41.129Z,45.30
2019-05-12T00:27:48.646Z,45.40
2019-05-12T00:32:54.730Z,45.50
2019-05-12T00:38:00.805Z,45.50
2019-05-12T00:43:08.449Z,45.40
2019-05-12T00:48:13.881Z,45.40
2019-05-12T00:53:19.665Z,45.20
2019-05-12T00:58:27.605Z,45.00
2019-05-12T01:03:32.862Z,44.90
2019-05-12T01:08:39.430Z,44.80
2019-05-12T01:13:48.488Z,45.00
2019-05-12T01:18:53.548Z,44.90
2019-05-12T01:24:03.256Z,45.00
2019-05-12T01:29:08.441Z,44.70
2019-05-12T01:34:13.860Z,44.80
2019-05-12T01:39:19.569Z,44.80
2019-05-12T01:44:25.470Z,44.60
2019-05-12T01:49:31.238Z,44.50
2019-05-12T01:54:38.046Z,44.40
2019-05-12T01:59:43.766Z,44.50
2019-05-12T02:05:23.893Z,44.50
2019-05-12T02:10:29.716Z,44.60
2019-05-12T02:15:35.404Z,44.80
2019-05-12T02:20:41.258Z,44.90
2019-05-12T02:25:48.317Z,45.10
2019-05-12T02:30:54.240Z,45.50
2019-05-12T02:35:59.868Z,45.20
2019-05-12T02:41:05.694Z,45.10
2019-05-12T02:46:15.270Z,45.00
2019-05-12T02:51:18.977Z,45.30
2019-05-12T02:56:26.112Z,45.40
2019-05-12T03:01:34.810Z,45.30
2019-05-12T03:06:44.573Z,45.30
2019-05-12T03:11:55.376Z,45.50
2019-05-12T03:16:59.386Z,45.50
2019-05-12T03:22:05.457Z,45.50
2019-05-12T03:27:11.191Z,45.60
2019-05-12T03:32:18.030Z,45.50
2019-05-12T03:37:30.746Z,46.50
2019-05-12T03:42:31.374Z,45.70
2019-05-12T03:47:37.256Z,45.60
2019-05-12T03:52:44.976Z,46.30
2019-05-12T03:57:51.067Z,45.50
2019-05-12T04:02:56.863Z,45.60
2019-05-12T04:08:05.446Z,45.50
2019-05-12T04:13:09.602Z,45.60
2019-05-12T04:18:16.363Z,45.60
2019-05-12T04:23:24.736Z,45.70
2019-05-12T04:28:29.639Z,45.50
2019-05-12T04:33:35.077Z,45.50
2019-05-12T04:38:40.501Z,45.30
2019-05-12T04:43:46.287Z,45.30
2019-05-12T04:48:54.535Z,45.40
2019-05-12T04:53:59.214Z,45.50
2019-05-12T04:59:05.256Z,45.50
2019-05-12T05:04:11.025Z,45.90
2019-05-12T05:09:16.953Z,45.70
2019-05-12T05:14:24.740Z,45.70
2019-05-12T05:19:30.740Z,45.90
2019-05-12T05:24:36.421Z,45.80
2019-05-12T05:29:43.790Z,46.10
2019-05-12T05:34:55.850Z,46.30
2019-05-12T05:39:56.578Z,46.40
2019-05-12T05:45:04.659Z,46.60
2019-05-12T05:50:09.440Z,46.60
2019-05-12T05:55:19.900Z,46.70
2019-05-12T06:00:26.082Z,46.80
2019-05-12T06:05:31.052Z,46.70
2019-05-12T06:10:40.403Z,46.50
2019-05-12T06:15:44.442Z,46.80
2019-05-12T06:20:50.240Z,46.80
2019-05-12T06:25:56.099Z,47.20
2019-05-12T06:31:04.117Z,47.00
2019-05-12T06:36:14.014Z,47.10
2019-05-12T06:41:20.843Z,46.80
2019-05-12T06:46:25.835Z,46.80
2019-05-12T06:51:33.662Z,46.60
2019-05-12T06:56:39.500Z,46.30
2019-05-12T07:01:49.913Z,46.00
2019-05-12T07:06:56.366Z,45.50
2019-05-12T07:12:03.896Z,45.40
2019-05-12T07:17:23.877Z,45.50
2019-05-12T07:22:49.864Z,46.30
2019-05-12T07:28:00.761Z,45.90
2019-05-12T07:33:04.471Z,45.50
2019-05-12T07:38:21.156Z,45.80
2019-05-12T07:43:24.141Z,46.00
2019-05-12T07:48:29.011Z,45.70
2019-05-12T07:53:34.628Z,46.10
2019-05-12T07:58:41.006Z,45.20
2019-05-12T08:03:51.046Z,45.20
2019-05-12T08:08:58.863Z,45.30
2019-05-12T08:14:03.608Z,45.40
2019-05-12T08:19:15.080Z,45.30
2019-05-12T08:24:16.810Z,45.10
2019-05-12T08:29:25.086Z,44.90
2019-05-12T08:34:30.608Z,44.70
2019-05-12T08:39:38.894Z,44.60
2019-05-12T08:44:44.031Z,44.70
2019-05-12T08:49:56.005Z,44.10
2019-05-12T08:54:57.097Z,44.20
2019-05-12T09:00:08.306Z,44.20
2019-05-12T09:05:10.277Z,44.50
2019-05-12T09:10:15.921Z,44.40
2019-05-12T09:15:23.396Z,44.50
2019-05-12T09:20:28.922Z,44.30
2019-05-12T09:25:39.319Z,44.50
2019-05-12T09:30:45.855Z,43.70
2019-05-12T09:35:50.544Z,43.40
2019-05-12T09:41:00.824Z,43.40
2019-05-12T09:46:04.179Z,43.20
2019-05-12T09:51:10.150Z,43.10
2019-05-12T09:56:16.009Z,42.90
2019-05-12T10:01:24.036Z,43.00
2019-05-12T10:06:29.514Z,42.80
2019-05-12T10:11:35.405Z,42.80
2019-05-12T10:16:45.613Z,42.60
2019-05-12T10:21:49.086Z,42.50
2019-05-12T10:26:56.071Z,42.30
2019-05-12T10:32:04.051Z,42.30
2019-05-12T10:37:09.830Z,42.40
2019-05-12T10:42:15.640Z,42.60
2019-05-12T10:47:23.788Z,42.60
2019-05-12T10:52:29.321Z,42.90
2019-05-12T10:57:37.050Z,43.20
2019-05-12T11:02:42.602Z,43.20
2019-05-12T11:07:49.545Z,43.30
2019-05-12T11:12:59.143Z,43.60
2019-05-12T11:18:09.278Z,43.70
2019-05-12T11:23:15.200Z,43.80
2019-05-12T11:28:21.168Z,44.00
2019-05-12T11:33:26.972Z,44.20
2019-05-12T11:38:33.671Z,44.40
2019-05-12T11:43:39.775Z,44.50
2019-05-12T11:48:50.214Z,44.50
2019-05-12T11:53:52.989Z,44.40
2019-05-12T11:58:58.947Z,44.60
2019-05-12T12:04:04.950Z,44.60
2019-05-12T12:09:17.048Z,44.70
2019-05-12T12:14:18.042Z,44.60
2019-05-12T12:19:26.052Z,44.70
2019-05-12T12:24:31.646Z,44.60
2019-05-12T12:29:37.235Z,44.80
2019-05-12T12:34:44.072Z,45.00
2019-05-12T12:39:50.060Z,45.20
2019-05-12T12:44:58.837Z,46.40
2019-05-12T12:50:04.022Z,46.40
2019-05-12T12:55:09.787Z,46.30
2019-05-12T13:00:28.752Z,46.10
2019-05-12T13:05:24.427Z,46.00
2019-05-12T13:10:30.405Z,46.10
2019-05-12T13:15:36.385Z,46.00
2019-05-12T13:20:43.540Z,46.10
2019-05-12T13:25:52.051Z,46.30
2019-05-12T13:31:08.260Z,46.50
2019-05-12T13:36:04.426Z,46.70
2019-05-12T13:41:15.844Z,46.80
2019-05-12T13:46:17.854Z,47.60
2019-05-12T13:51:24.300Z,46.90
2019-05-12T13:56:33.578Z,47.20
2019-05-12T14:01:40.139Z,47.30
2019-05-12T14:06:45.719Z,47.80
2019-05-12T14:11:53.726Z,47.40
2019-05-12T14:16:59.556Z,47.60
2019-05-12T14:22:05.374Z,47.60
2019-05-12T14:27:11.250Z,47.70
2019-05-12T14:32:17.763Z,47.90
2019-05-12T14:37:25.372Z,48.00
2019-05-12T14:42:34.968Z,48.00
2019-05-12T14:47:39.055Z,48.20
2019-05-12T14:52:44.941Z,48.20
2019-05-12T14:57:50.850Z,48.20
2019-05-12T15:02:59.056Z,48.40
2019-05-12T15:08:04.505Z,48.60
2019-05-12T15:13:10.270Z,48.80
2019-05-12T15:18:16.212Z,48.80
2019-05-12T15:23:23.910Z,48.70
2019-05-12T15:28:29.154Z,48.80
2019-05-12T15:33:35.095Z,48.80
2019-05-12T15:38:40.547Z,48.90
2019-05-12T15:43:48.857Z,49.00
2019-05-12T15:48:53.593Z,49.20
2019-05-12T15:54:06.437Z,50.00
2019-05-12T15:59:07.649Z,49.40
2019-05-12T16:04:15.113Z,49.30
2019-05-12T16:09:20.648Z,49.20
2019-05-12T16:14:30.465Z,49.00
2019-05-12T16:19:34.523Z,49.00
2019-05-12T16:24:43.494Z,48.90
2019-05-12T16:29:49.921Z,48.80
2019-05-12T16:34:55.293Z,48.80
2019-05-12T16:40:01.154Z,48.90
2019-05-12T16:45:10.033Z,48.80
2019-05-12T16:50:24.051Z,48.60
2019-05-12T16:55:24.160Z,48.60
2019-05-12T17:00:31.118Z,48.60
2019-05-12T17:05:37.327Z,48.60
2019-05-12T17:10:49.103Z,48.60
2019-05-12T17:15:55.414Z,48.70
2019-05-12T17:20:57.487Z,48.60
2019-05-12T17:26:03.919Z,49.50
2019-05-12T17:31:09.705Z,48.70
2019-05-12T17:36:17.997Z,48.90
2019-05-12T17:41:23.996Z,49.00
2019-05-12T17:46:32.415Z,48.40
2019-05-12T17:51:37.244Z,49.20
2019-05-12T17:56:42.618Z,49.10
2019-05-12T18:01:48.314Z,49.30
2019-05-12T18:06:54.129Z,49.10
2019-05-12T18:11:59.997Z,49.00
2019-05-12T18:17:08.741Z,49.10
2019-05-12T18:22:14.130Z,49.00
2019-05-12T18:27:20.013Z,49.00
2019-05-12T18:32:25.910Z,49.00
2019-05-12T18:37:34.335Z,49.60
2019-05-12T18:42:40.698Z,49.00
2019-05-12T18:47:46.482Z,49.00
2019-05-12T18:52:52.731Z,49.00
2019-05-12T18:57:58.576Z,49.00
2019-05-12T19:03:06.362Z,49.00
2019-05-12T19:08:13.844Z,49.10
2019-05-12T19:13:19.351Z,49.20
2019-05-12T19:18:32.523Z,49.20
2019-05-12T19:23:35.152Z,49.10
2019-05-12T19:28:44.397Z,49.10
2019-05-12T19:33:53.169Z,50.60
2019-05-12T19:38:55.464Z,53.90
2019-05-12T19:44:01.002Z,55.10
2019-05-12T19:49:07.521Z,55.30
2019-05-12T19:54:14.013Z,55.00
2019-05-12T19:59:19.766Z,54.20
2019-05-12T20:04:33.136Z,53.10
2019-05-12T20:09:32.515Z,52.00
2019-05-12T20:14:38.506Z,50.00
2019-05-12T20:19:44.380Z,47.70
2019-05-12T20:24:50.108Z,45.90
2019-05-12T20:29:55.630Z,44.80
2019-05-12T20:35:01.242Z,45.30
2019-05-12T20:40:07.972Z,44.70
2019-05-12T20:45:14.166Z,44.30
2019-05-12T20:50:25.882Z,44.10
2019-05-12T20:55:30.169Z,44.10
2019-05-12T21:00:38.742Z,44.00
2019-05-12T21:05:42.035Z,44.10
2019-05-12T21:10:47.694Z,44.20
2019-05-12T21:15:53.949Z,44.30
2019-05-12T21:20:59.996Z,44.50
2019-05-12T21:26:05.942Z,44.70
2019-05-12T21:31:13.982Z,44.80
2019-05-12T21:36:24.348Z,44.90
2019-05-12T21:41:26.218Z,45.80
2019-05-12T21:46:31.892Z,45.30
2019-05-12T21:51:37.916Z,45.30
2019-05-12T21:56:48.858Z,45.40
2019-05-12T22:01:53.282Z,45.60
2019-05-12T22:06:59.046Z,45.80
2019-05-12T22:12:05.114Z,46.00
2019-05-12T22:17:10.681Z,46.00
2019-05-12T22:22:19.539Z,46.20
2019-05-12T22:27:27.255Z,46.10
2019-05-12T22:32:33.120Z,46.20
2019-05-12T22:37:38.910Z,46.30
2019-05-12T22:42:44.613Z,46.40
2019-05-12T22:47:55.216Z,46.50
2019-05-12T22:52:57.850Z,46.50
2019-05-12T22:58:03.718Z,46.60
2019-05-12T23:03:11.959Z,46.60
2019-05-12T23:08:16.958Z,46.60
2019-05-12T23:13:23.806Z,46.60
2019-05-12T23:18:30.888Z,46.70
2019-05-12T23:23:36.825Z,46.70
2019-05-12T23:28:46.724Z,46.80
2019-05-12T23:33:49.961Z,46.90
2019-05-12T23:39:00.491Z,46.90
2019-05-12T23:44:04.203Z,46.90
2019-05-12T23:49:09.915Z,46.90
2019-05-12T23:54:15.481Z,46.90
2019-05-12T23:59:21.258Z,46.90
